LFGF weather

Beaune-Challanges Airport
Beaune/Challanges, Burgundy, France

Public forecast

Using degrees Celsius for public forecast. Weather courtesy of forecast.io.

METAR (pilot weather report)

Closest report is Dijon-Bourgogne Airport, 17.7 nm (32.8 km) NNE. Retrieved 2019/09/20 17:30 UTC (0 seconds ago):

LFSD 201730Z AUTO 05006KT CAVOK 21/08 Q1019

TAF (pilot weather forecast)

Forecast is more than 12 hours old.

Closest forecast is Dijon-Bourgogne Airport, 17.7 nm (32.8 km) NNE. Retrieved 2015/06/01 00:11 UTC (4 years ago):

TAF LFSD 010600Z 0100/0124 CNL